Time;durP1;ratioP1;P1;durP2;ratioP2;P2;SDS_P1;SDS_P2;PMS_P1;PMS_P2;Temp;Humidity;BMP_temperature;BMP_pressure;BME280_temperature;BME280_humidity;BME280_pressure;Samples;Min_cycle;Max_cycle;Signal;HPM_P1;HPM_P2
2023/03/25 00:00:39;;;;;;;1.30;0.20;;;;;;;8.55;100.00;99509.94;5061307;28;20051;-93
2023/03/25 00:03:08;;;;;;;2.00;0.40;;;;;;;8.09;100.00;99424.44;5076593;28;20047;-93
2023/03/25 00:05:41;;;;;;;2.28;0.47;;;;;;;8.25;100.00;99453.50;5073413;28;20047;-93
2023/03/25 00:08:12;;;;;;;0.85;0.25;;;;;;;8.32;100.00;99479.50;5072845;28;20049;-93
2023/03/25 00:10:40;;;;;;;1.05;0.32;;;;;;;8.23;100.00;99450.06;5081170;28;20040;-93
2023/03/25 00:13:12;;;;;;;0.32;0.20;;;;;;;7.95;100.00;99411.97;5089997;28;20036;-89
2023/03/25 00:15:44;;;;;;;1.23;0.22;;;;;;;8.44;100.00;99510.53;5085885;28;20086;-90
2023/03/25 00:18:12;;;;;;;0.50;0.30;;;;;;;8.46;100.00;99504.31;5083595;28;20047;-90
2023/03/25 00:20:44;;;;;;;2.17;0.40;;;;;;;8.35;100.00;99494.31;5080121;28;20152;-91
2023/03/25 00:23:15;;;;;;;0.95;0.32;;;;;;;8.26;100.00;99494.75;5077130;28;20137;-93
2023/03/25 00:25:47;;;;;;;1.25;0.30;;;;;;;8.33;100.00;99515.50;5074991;28;20067;-92
2023/03/25 00:28:15;;;;;;;1.55;0.20;;;;;;;8.32;100.00;99508.53;5084725;28;20028;-91
2023/03/25 00:30:44;;;;;;;0.32;0.20;;;;;;;8.20;100.00;99495.06;5086806;28;20075;-89
2023/03/25 00:33:17;;;;;;;0.63;0.40;;;;;;;8.33;100.00;99504.09;5086046;28;20056;-89
2023/03/25 00:35:58;;;;;;;1.65;0.20;;;;;;;8.47;100.00;99511.31;5094675;28;20052;-90
2023/03/25 00:38:33;;;;;;;0.70;0.20;;;;;;;8.53;100.00;99521.50;5078738;28;20066;-91
2023/03/25 00:41:16;;;;;;;0.95;0.30;;;;;;;8.47;100.00;99506.88;5088510;28;20041;-92
2023/03/25 00:43:44;;;;;;;1.33;0.40;;;;;;;8.33;100.00;99480.38;5077806;28;20054;-88
2023/03/25 00:46:15;;;;;;;1.10;0.35;;;;;;;8.49;100.00;99523.47;5080939;28;20096;-91
2023/03/25 00:48:42;;;;;;;1.75;0.20;;;;;;;8.41;100.00;99520.38;5082258;28;20103;-89
2023/03/25 00:51:18;;;;;;;1.30;0.40;;;;;;;8.38;100.00;99516.09;5091184;28;20051;-90
2023/03/25 00:53:59;;;;;;;0.75;0.30;;;;;;;8.30;100.00;99527.97;5091050;28;20040;-91
2023/03/25 00:56:32;;;;;;;0.75;0.30;;;;;;;8.07;100.00;99505.38;5087053;28;20037;-91
2023/03/25 00:59:02;;;;;;;2.53;0.57;;;;;;;8.18;100.00;99528.59;5088033;28;20057;-92
2023/03/25 01:01:29;;;;;;;1.85;0.20;;;;;;;7.90;100.00;99489.56;5084669;28;20045;-93
2023/03/25 01:03:57;;;;;;;1.45;0.30;;;;;;;8.06;100.00;99519.50;5088188;28;20040;-90
2023/03/25 01:06:35;;;;;;;1.30;0.40;;;;;;;8.12;100.00;99523.63;5093093;28;20092;-90
2023/03/25 01:09:06;;;;;;;0.40;0.30;;;;;;;8.11;100.00;99517.50;5061856;28;20059;-93
2023/03/25 01:11:50;;;;;;;0.70;0.30;;;;;;;8.01;100.00;99496.03;5072505;28;20052;-92
2023/03/25 01:14:31;;;;;;;0.65;0.22;;;;;;;7.87;100.00;99469.50;5079828;28;20040;-92
2023/03/25 01:17:22;;;;;;;3.63;0.20;;;;;;;8.07;100.00;99482.50;5082813;28;20043;-94
2023/03/25 01:19:51;;;;;;;1.58;0.30;;;;;;;8.19;100.00;99507.41;5074999;28;20056;-93
2023/03/25 01:22:18;;;;;;;3.25;0.35;;;;;;;8.03;100.00;99493.28;5068611;28;20539;-92
2023/03/25 01:24:45;;;;;;;1.40;0.30;;;;;;;7.83;100.00;99459.19;5071925;28;20036;-93
2023/03/25 01:27:43;;;;;;;3.42;0.47;;;;;;;8.14;100.00;99509.44;5076497;28;20095;-91
2023/03/25 01:30:17;;;;;;;1.45;0.30;;;;;;;8.03;100.00;99480.97;5058605;28;20054;-90
2023/03/25 01:32:47;;;;;;;2.42;0.63;;;;;;;8.10;100.00;99494.69;5084792;28;20077;-93
2023/03/25 01:35:14;;;;;;;1.48;0.50;;;;;;;8.15;100.00;99497.09;5074004;28;20040;-92
2023/03/25 01:37:45;;;;;;;2.55;0.32;;;;;;;8.14;100.00;99490.13;5076501;28;20048;-89
2023/03/25 01:40:23;;;;;;;1.58;0.40;;;;;;;8.11;100.00;99496.41;5083306;28;20183;-93
2023/03/25 01:42:50;;;;;;;0.63;0.28;;;;;;;8.00;100.00;99469.75;5084428;28;20092;-93
2023/03/25 01:45:31;;;;;;;1.77;0.40;;;;;;;8.10;100.00;99489.41;5072552;28;20040;-93
2023/03/25 01:48:09;;;;;;;3.17;0.43;;;;;;;8.07;100.00;99490.44;5067598;28;20060;-94
2023/03/25 01:50:44;;;;;;;2.40;0.40;;;;;;;8.09;100.00;99495.63;5071654;28;20052;-94
2023/03/25 01:53:23;;;;;;;1.13;0.32;;;;;;;8.14;100.00;99487.50;5069711;28;20108;-94
2023/03/25 01:56:01;;;;;;;2.25;0.35;;;;;;;8.15;100.00;99476.88;5071104;28;20075;-93
2023/03/25 01:58:43;;;;;;;0.60;0.40;;;;;;;8.28;100.00;99485.00;5077900;28;20040;-92
2023/03/25 02:01:21;;;;;;;0.75;0.30;;;;;;;7.98;100.00;99421.50;5070926;28;20139;-93
2023/03/25 02:04:08;;;;;;;2.35;0.50;;;;;;;8.40;100.00;99482.59;5075846;28;20064;-94
2023/03/25 02:06:54;;;;;;;2.65;0.40;;;;;;;8.37;100.00;99455.50;5068379;28;20056;-93
2023/03/25 02:09:29;;;;;;;2.42;0.50;;;;;;;8.40;100.00;99450.06;5068166;28;20048;-92
2023/03/25 02:11:59;;;;;;;4.97;0.60;;;;;;;8.58;100.00;99464.94;5067669;28;20048;-92
2023/03/25 02:14:33;;;;;;;1.20;0.47;;;;;;;8.46;100.00;99427.81;5052777;28;20040;-94
2023/03/25 02:17:30;;;;;;;1.98;0.30;;;;;;;8.72;100.00;99461.53;5076119;28;20079;-92
2023/03/25 02:20:36;;;;;;;1.45;0.47;;;;;;;8.75;100.00;99453.47;5085356;28;20062;-90
2023/03/25 02:23:22;;;;;;;3.00;0.55;;;;;;;8.83;100.00;99463.59;5084657;28;20051;-92
2023/03/25 02:26:04;;;;;;;2.58;0.63;;;;;;;8.77;100.00;99428.69;5088756;28;20071;-90
2023/03/25 02:28:46;;;;;;;1.65;0.55;;;;;;;8.88;100.00;99456.28;5086914;28;20063;-90
2023/03/25 02:31:39;;;;;;;4.93;0.77;;;;;;;8.81;100.00;99445.22;5088274;28;20036;-90
2023/03/25 02:34:28;;;;;;;3.50;0.70;;;;;;;8.79;100.00;99455.88;5093570;28;20093;-90
2023/03/25 02:37:17;;;;;;;3.00;0.90;;;;;;;8.71;100.00;99434.28;5086190;28;20536;-91
2023/03/25 02:42:51;;;;;;;3.33;0.80;;;;;;;8.60;100.00;99436.69;4991404;28;20149;-90
2023/03/25 02:45:33;;;;;;;5.57;1.13;;;;;;;8.46;100.00;99428.66;4988566;28;20054;-91
2023/03/25 02:48:06;;;;;;;;;;;;;;;8.41;100.00;99417.50;4991763;28;20141;-92
2023/03/25 02:50:45;;;;;;;5.43;1.40;;;;;;;8.54;100.00;99434.34;5005570;28;19925;-93
2023/03/25 02:53:19;;;;;;;6.25;0.98;;;;;;;8.21;100.00;99380.72;4988706;28;20063;-94
2023/03/25 02:55:49;;;;;;;3.72;0.88;;;;;;;8.32;100.00;99386.34;4983535;28;20043;-93
2023/03/25 02:58:20;;;;;;;5.60;0.90;;;;;;;8.55;100.00;99417.59;4978497;28;20061;-93
2023/03/25 03:00:49;;;;;;;3.95;1.20;;;;;;;8.48;100.00;99395.13;4983053;28;20089;-89
2023/03/25 03:03:17;;;;;;;1.75;0.70;;;;;;;8.67;100.00;99410.78;4996396;28;20102;-89
2023/03/25 03:06:04;;;;;;;4.13;1.00;;;;;;;8.71;100.00;99439.59;4994843;28;20039;-90
2023/03/25 03:08:47;;;;;;;3.88;1.00;;;;;;;8.64;100.00;99438.22;4984744;28;20043;-92
2023/03/25 03:11:35;;;;;;;5.38;0.82;;;;;;;8.70;100.00;99437.88;4984013;28;20188;-93
2023/03/25 03:14:35;;;;;;;4.53;1.10;;;;;;;8.74;100.00;99435.94;4979526;28;20047;-92
2023/03/25 03:17:20;;;;;;;2.92;0.70;;;;;;;8.74;100.00;99433.28;4993292;28;20542;-89
2023/03/25 03:19:57;;;;;;;2.78;0.93;;;;;;;8.71;100.00;99429.03;4980161;28;20460;-92
2023/03/25 03:22:55;;;;;;;3.20;1.05;;;;;;;8.77;100.00;99439.25;4976209;28;20051;-92
2023/03/25 03:25:35;;;;;;;5.85;1.42;;;;;;;8.75;100.00;99430.56;4996522;28;20432;-91
2023/03/25 03:28:09;;;;;;;4.13;0.80;;;;;;;8.76;100.00;99453.38;4984100;28;20068;-91
2023/03/25 03:30:47;;;;;;;3.55;0.80;;;;;;;8.72;100.00;99451.00;4980023;28;20488;-91
2023/03/25 03:33:27;;;;;;;1.90;0.55;;;;;;;8.69;100.00;99448.50;4976290;28;20055;-92
2023/03/25 03:36:04;;;;;;;3.08;0.60;;;;;;;8.61;100.00;99442.81;4992498;28;20055;-92
2023/03/25 03:38:46;;;;;;;4.10;0.55;;;;;;;8.70;100.00;99443.16;4979388;28;20046;-93
2023/03/25 03:41:19;;;;;;;2.67;0.63;;;;;;;8.78;100.00;99438.31;4989905;28;20047;-93
2023/03/25 03:44:26;;;;;;;3.03;0.60;;;;;;;8.79;100.00;99447.94;4976691;28;20113;-91
2023/03/25 03:47:01;;;;;;;2.33;0.65;;;;;;;8.58;100.00;99409.50;4919389;29;20059;-92
2023/03/25 03:49:37;;;;;;;2.40;0.60;;;;;;;8.72;100.00;99451.84;4964115;28;20074;-92
2023/03/25 03:52:15;;;;;;;2.15;0.70;;;;;;;8.56;100.00;99429.84;4983501;28;20084;-91
2023/03/25 03:54:56;;;;;;;2.63;0.50;;;;;;;8.51;100.00;99438.94;4999070;28;20043;-95
2023/03/25 03:57:50;;;;;;;2.25;0.50;;;;;;;8.64;100.00;99467.25;4981539;28;20106;-93
2023/03/25 04:00:28;;;;;;;1.48;0.55;;;;;;;8.59;100.00;99466.63;4986833;28;20376;-91
2023/03/25 04:03:23;;;;;;;1.65;0.60;;;;;;;8.38;100.00;99441.38;4981912;28;20055;-92
2023/03/25 04:05:58;;;;;;;2.45;0.60;;;;;;;8.50;100.00;99455.75;4984757;28;20187;-92
2023/03/25 04:08:31;;;;;;;1.50;0.50;;;;;;;8.05;100.00;99364.88;4980175;28;20051;-93
2023/03/25 04:11:06;;;;;;;3.42;0.70;;;;;;;8.38;100.00;99417.66;4979618;28;20141;-91
2023/03/25 04:13:41;;;;;;;0.82;0.40;;;;;;;8.71;100.00;99471.25;4984670;28;20050;-94
2023/03/25 04:16:09;;;;;;;2.03;0.70;;;;;;;8.49;100.00;99435.56;5003690;28;20042;-93
2023/03/25 04:18:38;;;;;;;1.33;0.63;;;;;;;8.36;100.00;99411.59;4986828;28;20054;-90
2023/03/25 04:21:05;;;;;;;2.08;0.63;;;;;;;8.37;100.00;99437.03;4990114;28;20058;-89
2023/03/25 04:23:33;;;;;;;1.75;0.70;;;;;;;8.19;100.00;99422.16;5007653;28;20071;-90
2023/03/25 04:26:02;;;;;;;0.68;0.50;;;;;;;8.18;100.00;99454.75;4992610;28;20046;-91
2023/03/25 04:28:30;;;;;;;1.90;0.68;;;;;;;8.32;100.00;99483.94;4992958;28;20035;-90
2023/03/25 04:30:59;;;;;;;2.25;0.70;;;;;;;8.29;100.00;99476.16;4986519;28;20050;-89
2023/03/25 04:33:30;;;;;;;1.33;0.68;;;;;;;8.28;100.00;99492.91;4990780;28;20067;-89
2023/03/25 04:36:00;;;;;;;1.83;0.73;;;;;;;8.26;100.00;99498.25;4982053;28;20478;-89
2023/03/25 04:38:28;;;;;;;0.95;0.60;;;;;;;7.97;100.00;99451.44;4996213;28;20066;-91
2023/03/25 04:40:55;;;;;;;2.55;0.80;;;;;;;8.07;100.00;99474.59;4979090;28;20066;-91
2023/03/25 04:43:22;;;;;;;3.70;0.95;;;;;;;8.04;100.00;99458.94;4979550;28;20134;-91
2023/03/25 04:45:53;;;;;;;2.88;0.75;;;;;;;8.13;100.00;99459.41;4991611;28;20122;-88
2023/03/25 04:48:28;;;;;;;4.30;0.75;;;;;;;7.95;100.00;99461.22;4979243;28;20082;-92
2023/03/25 04:51:02;;;;;;;4.75;0.90;;;;;;;8.04;100.00;99480.03;4979374;28;20142;-89
2023/03/25 04:53:30;;;;;;;4.07;1.33;;;;;;;8.14;100.00;99508.59;4978909;28;20042;-89
2023/03/25 04:55:59;;;;;;;3.20;0.80;;;;;;;7.94;100.00;99476.16;4983749;28;20034;-90
2023/03/25 04:58:25;;;;;;;5.10;0.75;;;;;;;8.12;100.00;99515.72;4987955;28;20073;-90
2023/03/25 05:00:53;;;;;;;1.48;0.70;;;;;;;7.86;100.00;99462.53;4990139;28;20047;-90
2023/03/25 05:03:22;;;;;;;3.85;1.00;;;;;;;7.83;100.00;99454.78;4991099;28;20042;-91
2023/03/25 05:05:50;;;;;;;1.88;0.70;;;;;;;8.04;100.00;99476.53;4994354;28;20034;-88
2023/03/25 05:08:20;;;;;;;3.72;0.90;;;;;;;8.19;100.00;99485.44;4993753;28;20023;-91
2023/03/25 05:10:48;;;;;;;3.83;0.82;;;;;;;8.36;100.00;99503.94;4983095;28;20049;-89
2023/03/25 05:13:15;;;;;;;3.15;0.98;;;;;;;8.44;100.00;99509.66;4995274;28;20049;-89
2023/03/25 05:15:43;;;;;;;4.00;0.90;;;;;;;8.55;100.00;99507.31;4987162;28;20035;-90
2023/03/25 05:18:13;;;;;;;1.85;0.80;;;;;;;8.56;100.00;99509.03;5004394;28;20275;-90
2023/03/25 05:20:48;;;;;;;1.17;0.80;;;;;;;8.34;100.00;99480.25;4994789;28;20047;-92
2023/03/25 05:23:34;;;;;;;3.60;1.02;;;;;;;8.25;100.00;99475.44;4931076;29;20105;-93
2023/03/25 05:26:06;;;;;;;1.65;0.85;;;;;;;8.49;100.00;99504.16;4944344;29;20040;-92
2023/03/25 05:28:34;;;;;;;3.30;0.90;;;;;;;8.53;100.00;99506.53;4930144;29;20107;-92
2023/03/25 05:31:08;;;;;;;2.28;0.70;;;;;;;8.49;100.00;99520.00;4944865;29;20115;-91
2023/03/25 05:33:43;;;;;;;4.32;1.23;;;;;;;8.35;100.00;99518.03;4947184;29;20111;-91
2023/03/25 05:36:15;;;;;;;3.63;0.90;;;;;;;8.15;100.00;99486.56;4927717;29;20059;-91
2023/03/25 05:38:43;;;;;;;2.90;0.93;;;;;;;8.08;100.00;99486.88;4939940;29;20086;-92
2023/03/25 05:41:15;;;;;;;2.85;1.00;;;;;;;8.16;100.00;99510.22;4922068;29;20143;-90
2023/03/25 05:43:47;;;;;;;5.15;1.13;;;;;;;8.18;100.00;99518.06;4944366;29;20054;-88
2023/03/25 05:46:14;;;;;;;4.57;1.05;;;;;;;8.17;100.00;99533.03;4934997;29;20304;-88
2023/03/25 05:48:48;;;;;;;2.22;1.13;;;;;;;8.31;100.00;99546.34;4965161;28;20047;-88
2023/03/25 05:51:20;;;;;;;4.18;1.23;;;;;;;8.45;100.00;99543.03;4993869;28;20057;-89
2023/03/25 05:53:50;;;;;;;5.00;1.40;;;;;;;8.42;100.00;99543.19;4997726;28;21098;-87
2023/03/25 05:56:23;;;;;;;5.65;1.35;;;;;;;7.90;100.00;99485.16;4997700;28;20066;-92
2023/03/25 05:58:51;;;;;;;2.35;1.20;;;;;;;7.60;100.00;99442.75;4986327;28;20138;-89
2023/03/25 06:01:22;;;;;;;6.05;1.77;;;;;;;8.21;100.00;99541.59;4996868;28;20070;-90
2023/03/25 06:04:01;;;;;;;4.18;1.50;;;;;;;8.03;100.00;99509.09;4996337;28;20138;-91
2023/03/25 06:06:30;;;;;;;4.97;1.40;;;;;;;8.01;100.00;99511.84;5014843;28;20038;-92
2023/03/25 06:09:06;;;;;;;3.30;1.42;;;;;;;8.18;100.00;99540.00;4998393;28;20139;-88
2023/03/25 06:11:45;;;;;;;2.85;1.30;;;;;;;8.18;100.00;99524.19;4998268;28;20049;-88
2023/03/25 06:14:13;;;;;;;2.38;0.88;;;;;;;8.43;100.00;99560.72;4990372;28;20034;-90
2023/03/25 06:16:40;;;;;;;2.72;1.10;;;;;;;8.20;100.00;99506.47;4989738;28;20050;-90
2023/03/25 06:19:08;;;;;;;1.75;1.20;;;;;;;8.38;100.00;99508.19;5002826;28;20065;-90
2023/03/25 06:21:39;;;;;;;5.28;1.20;;;;;;;8.65;100.00;99534.94;4996416;28;20030;-91
2023/03/25 06:24:07;;;;;;;3.25;1.08;;;;;;;8.34;100.00;99500.53;5006369;28;20060;-91
2023/03/25 06:26:37;;;;;;;6.47;1.38;;;;;;;8.65;100.00;99558.69;5008652;28;20154;-89
2023/03/25 06:29:07;;;;;;;5.75;1.25;;;;;;;8.69;100.00;99552.28;4986265;28;20058;-92
2023/03/25 06:31:37;;;;;;;3.63;1.02;;;;;;;8.81;100.00;99553.47;4984845;28;20049;-93
2023/03/25 06:34:07;;;;;;;3.50;1.38;;;;;;;8.89;100.00;99553.88;4986686;28;20054;-90
2023/03/25 06:36:34;;;;;;;1.73;0.80;;;;;;;8.41;100.00;99467.63;4986113;28;20042;-91
2023/03/25 06:39:04;;;;;;;2.00;0.95;;;;;;;8.54;100.00;99508.25;4987340;28;20054;-92
2023/03/25 06:41:35;;;;;;;2.78;0.82;;;;;;;8.74;100.00;99528.31;4990687;28;20069;-91
2023/03/25 06:44:15;;;;;;;1.45;0.70;;;;;;;8.61;100.00;99511.41;4989439;28;20050;-90
2023/03/25 06:46:55;;;;;;;3.55;0.82;;;;;;;8.78;100.00;99536.00;4971765;28;20114;-86
2023/03/25 06:49:36;;;;;;;3.35;1.30;;;;;;;9.07;100.00;99570.53;4975871;28;20047;-92
2023/03/25 06:52:04;;;;;;;2.10;0.82;;;;;;;8.82;100.00;99512.91;4985978;28;20054;-89
2023/03/25 06:54:33;;;;;;;3.28;0.57;;;;;;;8.94;100.00;99509.63;4989580;28;20126;-91
2023/03/25 06:57:04;;;;;;;1.60;0.75;;;;;;;8.67;100.00;99484.69;4988833;28;20046;-92
2023/03/25 06:59:48;;;;;;;2.75;0.80;;;;;;;9.14;100.00;99553.41;4984500;28;20078;-93
2023/03/25 07:02:16;;;;;;;;;;;;;;;9.28;100.00;99552.69;4985203;28;20039;-91
2023/03/25 07:04:44;;;;;;;5.25;1.80;;;;;;;9.07;100.00;99512.44;4966760;28;19928;-91
2023/03/25 07:07:18;;;;;;;4.20;1.10;;;;;;;9.36;100.00;99559.22;4990148;28;20074;-91
2023/03/25 07:10:00;;;;;;;5.18;1.17;;;;;;;9.02;100.00;99517.09;4976806;28;20063;-89
2023/03/25 07:12:27;;;;;;;5.68;1.27;;;;;;;9.12;100.00;99556.16;4996323;28;20102;-91
2023/03/25 07:14:57;;;;;;;2.25;0.95;;;;;;;8.93;100.00;99507.06;5008494;28;20093;-91
2023/03/25 07:17:25;;;;;;;3.80;1.00;;;;;;;9.38;100.00;99556.50;4988757;28;20039;-92
2023/03/25 07:19:53;;;;;;;4.65;1.10;;;;;;;9.37;100.00;99542.44;4972848;28;20062;-90
2023/03/25 07:22:33;;;;;;;4.70;1.00;;;;;;;9.53;100.00;99565.38;4995797;28;20130;-92
2023/03/25 07:25:10;;;;;;;4.70;1.50;;;;;;;9.40;100.00;99529.06;4996786;28;20045;-91
2023/03/25 07:27:37;;;;;;;4.43;1.10;;;;;;;9.74;100.00;99558.88;4992847;28;20057;-93
2023/03/25 07:30:06;;;;;;;4.88;1.50;;;;;;;10.10;100.00;99547.97;4987268;28;20053;-91
2023/03/25 07:32:35;;;;;;;3.83;1.15;;;;;;;10.17;100.00;99547.53;4989730;28;20043;-93
2023/03/25 07:35:08;;;;;;;3.35;1.05;;;;;;;10.31;100.00;99543.25;4989873;28;20034;-90
2023/03/25 07:37:35;;;;;;;6.72;1.67;;;;;;;10.33;100.00;99552.81;4994221;28;20047;-92
2023/03/25 07:40:03;;;;;;;7.22;1.38;;;;;;;10.34;100.00;99543.06;5008271;28;20050;-91
2023/03/25 07:42:30;;;;;;;4.15;0.93;;;;;;;10.40;100.00;99551.47;5004821;28;20057;-88
2023/03/25 07:44:59;;;;;;;4.65;1.25;;;;;;;10.45;100.00;99560.00;5016269;28;20046;-92
2023/03/25 07:47:32;;;;;;;4.72;1.25;;;;;;;10.04;100.00;99532.47;4992425;28;20062;-89
2023/03/25 07:49:59;;;;;;;7.63;1.23;;;;;;;10.19;100.00;99564.19;4992879;28;20072;-92
2023/03/25 07:52:26;;;;;;;5.30;1.42;;;;;;;9.78;100.00;99495.16;4989091;28;20059;-90
2023/03/25 07:54:53;;;;;;;7.45;1.20;;;;;;;9.89;100.00;99514.84;4998170;28;20035;-90
2023/03/25 07:57:20;;;;;;;8.35;1.58;;;;;;;9.58;100.00;99457.63;4993497;28;20049;-89
2023/03/25 07:59:52;;;;;;;11.30;1.85;;;;;;;10.17;100.00;99491.97;4979481;28;20030;-91
2023/03/25 08:02:20;;;;;;;8.10;1.20;;;;;;;10.32;100.00;99505.25;4976652;28;21050;-90
2023/03/25 08:04:48;;;;;;;8.07;1.30;;;;;;;10.57;100.00;99475.50;4989806;28;20077;-90
2023/03/25 08:07:15;;;;;;;4.20;1.30;;;;;;;11.29;95.48;99557.50;4989116;28;20090;-91
2023/03/25 08:09:43;;;;;;;8.63;1.55;;;;;;;10.53;95.63;99503.97;4991238;28;20035;-89
2023/03/25 08:12:13;;;;;;;5.75;1.30;;;;;;;10.85;95.77;99531.13;5006287;28;20144;-91
2023/03/25 08:14:44;;;;;;;10.43;1.67;;;;;;;10.94;94.01;99558.81;5008236;28;20345;-91
2023/03/25 08:17:15;;;;;;;;;;;;;;;10.73;97.37;99551.25;5008555;28;20038;-88
2023/03/25 08:19:42;;;;;;;6.00;1.45;;;;;;;10.75;96.88;99533.47;4996209;28;19922;-87
2023/03/25 08:24:50;;;;;;;8.98;2.20;;;;;;;10.51;96.10;99521.75;4994999;28;20065;-92
2023/03/25 08:27:19;;;;;;;11.60;1.90;;;;;;;10.60;98.34;99510.59;4995188;28;20046;-88
2023/03/25 08:29:53;;;;;;;7.22;1.80;;;;;;;10.98;95.21;99552.41;4997760;28;20060;-90
2023/03/25 08:32:35;;;;;;;10.18;1.65;;;;;;;10.75;94.57;99524.69;4996974;28;20046;-89
2023/03/25 08:35:05;;;;;;;11.15;1.85;;;;;;;10.73;92.90;99524.75;4997776;28;20038;-90
2023/03/25 08:37:36;;;;;;;8.85;2.25;;;;;;;11.01;90.59;99538.97;4991663;28;20046;-88
2023/03/25 08:40:17;;;;;;;9.93;1.95;;;;;;;11.03;89.31;99529.97;4996114;28;20038;-91
2023/03/25 08:42:51;;;;;;;9.30;1.80;;;;;;;11.15;88.23;99533.66;4992571;28;20050;-93
2023/03/25 08:45:22;;;;;;;8.82;1.92;;;;;;;11.35;88.93;99551.78;4990506;28;20047;-93
2023/03/25 08:48:01;;;;;;;9.73;1.80;;;;;;;11.02;84.82;99491.16;5004019;28;20046;-91
2023/03/25 08:50:28;;;;;;;5.72;1.52;;;;;;;11.08;85.00;99479.34;5001237;28;20050;-90
2023/03/25 08:52:57;;;;;;;9.43;1.92;;;;;;;11.60;84.19;99533.38;5003179;28;20058;-92
2023/03/25 08:55:32;;;;;;;11.35;1.77;;;;;;;11.17;83.03;99486.72;4994356;28;20066;-90
2023/03/25 08:58:05;;;;;;;8.70;1.83;;;;;;;11.48;85.58;99512.09;4971353;28;20047;-90
2023/03/25 09:00:36;;;;;;;6.70;2.00;;;;;;;11.68;80.85;99508.13;4985255;28;20051;-91
2023/03/25 09:03:06;;;;;;;10.15;2.08;;;;;;;11.72;79.05;99485.78;4982545;28;20039;-92
2023/03/25 09:05:37;;;;;;;8.80;1.73;;;;;;;11.94;79.71;99508.16;4987144;28;20066;-91
2023/03/25 09:08:08;;;;;;;;;;;;;;;12.21;78.73;99523.19;4991528;28;20070;-89
2023/03/25 09:10:51;;;;;;;8.93;2.10;;;;;;;11.97;77.58;99512.41;4980787;28;19945;-90
2023/03/25 09:13:26;;;;;;;9.30;1.67;;;;;;;11.54;78.06;99438.31;4995998;28;20090;-93
2023/03/25 09:15:58;;;;;;;9.68;2.08;;;;;;;11.64;78.03;99469.53;4977790;28;20058;-90
2023/03/25 09:18:39;;;;;;;7.68;1.83;;;;;;;11.26;79.02;99446.38;4986598;28;20074;-93
2023/03/25 09:21:07;;;;;;;6.80;1.60;;;;;;;11.48;79.58;99507.66;4988312;28;20046;-90
2023/03/25 09:23:36;;;;;;;8.52;1.65;;;;;;;11.61;79.14;99505.06;4990372;28;20050;-92
2023/03/25 09:26:07;;;;;;;11.60;1.92;;;;;;;11.45;79.30;99459.28;4982283;28;20062;-93
2023/03/25 09:28:44;;;;;;;11.85;2.25;;;;;;;11.72;78.93;99469.88;4976286;28;20047;-93
2023/03/25 09:31:14;;;;;;;9.88;1.73;;;;;;;11.74;79.85;99446.75;4979848;28;20043;-93
2023/03/25 09:33:42;;;;;;;14.38;2.05;;;;;;;12.24;78.74;99465.44;4994870;28;20078;-94
2023/03/25 09:36:30;;;;;;;8.35;1.70;;;;;;;12.56;76.94;99488.91;4979169;28;20057;-91
2023/03/25 09:39:05;;;;;;;8.90;1.88;;;;;;;12.22;76.19;99470.00;4980023;28;20190;-92
2023/03/25 09:42:09;;;;;;;8.45;1.98;;;;;;;12.06;75.85;99487.91;4955105;28;20047;-92
2023/03/25 09:45:06;;;;;;;9.32;2.25;;;;;;;11.76;79.17;99503.22;4983967;28;20307;-90
2023/03/25 09:47:40;;;;;;;12.98;2.00;;;;;;;11.31;82.89;99542.34;4978122;28;20039;-90
2023/03/25 09:50:13;;;;;;;6.40;0.93;;;;;;;9.68;94.91;99633.25;4987409;28;20054;-91
2023/03/25 09:52:51;;;;;;;1.67;0.60;;;;;;;7.55;100.00;99665.22;4987144;28;20050;-91
2023/03/25 09:55:25;;;;;;;1.50;0.75;;;;;;;5.67;100.00;99613.66;4979910;28;20074;-88
2023/03/25 09:58:19;;;;;;;2.22;0.60;;;;;;;5.37;100.00;99623.56;4971882;28;20046;-88
2023/03/25 10:01:11;;;;;;;3.65;0.50;;;;;;;5.22;100.00;99591.72;4989561;28;20046;-91
2023/03/25 10:04:00;;;;;;;2.33;0.45;;;;;;;5.40;100.00;99599.81;4984857;28;20047;-92
2023/03/25 10:06:31;;;;;;;6.10;0.80;;;;;;;5.60;100.00;99610.41;4976485;28;20049;-92
2023/03/25 10:08:58;;;;;;;4.50;1.40;;;;;;;5.75;100.00;99619.47;4981747;28;20489;-87
2023/03/25 10:11:46;;;;;;;3.95;0.98;;;;;;;5.89;100.00;99604.03;4977377;28;20054;-90
2023/03/25 10:14:31;;;;;;;5.68;1.00;;;;;;;6.00;100.00;99578.16;4968795;28;20134;-89
2023/03/25 10:17:37;;;;;;;4.88;0.80;;;;;;;6.50;100.00;99604.97;4971942;28;20054;-90
2023/03/25 10:20:40;;;;;;;5.43;0.95;;;;;;;6.54;100.00;99577.63;4975702;28;20055;-86
2023/03/25 10:23:32;;;;;;;6.30;1.20;;;;;;;6.83;100.00;99575.47;4960958;28;20707;-89
2023/03/25 10:26:35;;;;;;;8.00;1.20;;;;;;;7.04;100.00;99559.56;4967829;28;20061;-90
2023/03/25 10:29:05;;;;;;;;;;;;;;;7.24;100.00;99563.91;4977541;28;20050;-88
2023/03/25 10:31:38;;;;;;;5.28;0.93;;;;;;;7.47;100.00;99540.91;4984174;28;19922;-90
2023/03/25 10:34:15;;;;;;;3.55;0.93;;;;;;;7.83;100.00;99539.13;4976049;28;20491;-92
2023/03/25 10:36:53;;;;;;;2.67;0.85;;;;;;;8.21;100.00;99549.50;4972158;28;20039;-89
2023/03/25 10:39:32;;;;;;;3.83;1.02;;;;;;;8.33;100.00;99533.13;4994353;28;20039;-91
2023/03/25 10:42:40;;;;;;;2.88;0.70;;;;;;;8.73;100.00;99545.94;4988557;28;20064;-91
2023/03/25 10:45:17;;;;;;;2.38;1.00;;;;;;;8.93;100.00;99544.03;4996657;28;20066;-89
2023/03/25 10:47:45;;;;;;;4.53;0.80;;;;;;;9.18;100.00;99547.03;4981987;28;20047;-89
2023/03/25 10:50:17;;;;;;;5.03;0.65;;;;;;;9.23;100.00;99552.91;4987885;28;20126;-88
2023/03/25 10:52:51;;;;;;;2.50;1.08;;;;;;;9.26;100.00;99543.97;4986371;28;20129;-92
2023/03/25 10:55:31;;;;;;;4.70;0.52;;;;;;;9.30;100.00;99549.00;4976949;28;20057;-89
2023/03/25 10:58:04;;;;;;;4.25;0.90;;;;;;;9.36;100.00;99556.59;4994449;28;20102;-86
2023/03/25 11:00:33;;;;;;;2.50;1.08;;;;;;;9.63;100.00;99574.47;4990009;28;20058;-90
2023/03/25 11:03:24;;;;;;;6.25;0.93;;;;;;;9.70;100.00;99565.28;4994358;28;20047;-92
2023/03/25 11:05:59;;;;;;;3.13;0.65;;;;;;;9.81;100.00;99557.59;4996435;28;20070;-92
2023/03/25 11:08:28;;;;;;;5.97;0.80;;;;;;;9.80;100.00;99569.09;4994281;28;20047;-91
2023/03/25 11:10:59;;;;;;;3.80;0.68;;;;;;;9.63;100.00;99540.13;4973734;28;20030;-93
2023/03/25 11:13:31;;;;;;;3.28;0.80;;;;;;;9.73;100.00;99530.75;4989762;28;20110;-93
2023/03/25 11:16:16;;;;;;;3.25;0.80;;;;;;;9.89;100.00;99531.56;4991838;28;20034;-92
2023/03/25 11:18:43;;;;;;;1.27;0.50;;;;;;;9.89;100.00;99550.09;4987250;28;20049;-94
2023/03/25 11:21:12;;;;;;;3.05;0.80;;;;;;;9.84;100.00;99501.88;4994571;28;20034;-94
2023/03/25 11:23:48;;;;;;;6.65;1.05;;;;;;;9.98;100.00;99501.94;4977296;28;20046;-93
2023/03/25 11:26:40;;;;;;;4.50;1.10;;;;;;;10.38;100.00;99531.38;4985655;28;20050;-91
2023/03/25 11:29:22;;;;;;;4.40;0.98;;;;;;;10.59;100.00;99543.28;5126525;23;20073;-91
2023/03/25 11:32:15;;;;;;;4.03;0.98;;;;;;;10.46;100.00;99486.75;5016826;28;20045;-93
2023/03/25 11:34:53;;;;;;;6.75;1.00;;;;;;;10.31;100.00;99463.88;5006565;28;20109;-94
2023/03/25 11:37:39;;;;;;;7.18;1.08;;;;;;;10.77;100.00;99515.69;5066414;23;20062;-92
2023/03/25 11:43:45;;;;;;;4.35;0.80;;;;;;;11.50;97.28;99532.25;4993653;28;20027;-94
2023/03/25 11:46:43;;;;;;;10.05;1.30;;;;;;;11.13;86.11;99495.81;5002338;28;20042;-93
2023/03/25 11:49:26;;;;;;;3.63;0.90;;;;;;;11.08;92.00;99503.19;4988586;28;20073;-93
2023/03/25 11:52:30;;;;;;;7.80;0.98;;;;;;;11.01;88.82;99513.34;5000850;28;20126;-92
2023/03/25 11:55:01;;;;;;;4.18;0.80;;;;;;;10.98;88.92;99513.53;4964902;28;20051;-93
2023/03/25 11:57:39;;;;;;;6.88;1.23;;;;;;;11.10;85.87;99541.03;4995619;28;20089;-93
2023/03/25 12:00:36;;;;;;;4.93;0.80;;;;;;;11.17;84.29;99537.06;4996738;28;20109;-94
2023/03/25 12:03:21;;;;;;;7.95;1.10;;;;;;;11.06;85.56;99510.38;4985755;28;20062;-93
2023/03/25 12:06:34;;;;;;;3.25;0.80;;;;;;;11.22;83.26;99533.16;4985351;28;20461;-92
2023/03/25 12:09:18;;;;;;;4.28;0.90;;;;;;;10.94;84.41;99447.56;4991362;28;20054;-92
2023/03/25 12:12:42;;;;;;;4.53;1.13;;;;;;;11.36;80.87;99511.06;4981077;28;20051;-92
2023/03/25 12:15:57;;;;;;;7.18;1.50;;;;;;;11.63;77.73;99494.34;4992862;28;20106;-91
2023/03/25 12:19:01;;;;;;;2.13;0.90;;;;;;;11.75;71.79;99490.88;4987533;28;20046;-91
2023/03/25 12:22:25;;;;;;;5.97;1.27;;;;;;;12.01;68.29;99497.97;4982039;28;20046;-92
2023/03/25 12:25:29;;;;;;;5.38;1.25;;;;;;;12.33;67.00;99484.34;4985643;28;20082;-93